Time;durP1;ratioP1;P1;durP2;ratioP2;P2;SDS_P1;SDS_P2;PMS_P1;PMS_P2;Temp;Humidity;BMP_temperature;BMP_pressure;BME280_temperature;BME280_humidity;BME280_pressure;Samples;Min_cycle;Max_cycle;Signal;HPM_P1;HPM_P2
2022/05/23 00:01:44;;;;;;;0.70;0.70;;;5.60;99.90;;;;;;5073034;28;20218;-84
2022/05/23 00:04:10;;;;;;;0.75;0.75;;;5.60;99.90;;;;;;5073149;28;20201;-82
2022/05/23 00:06:36;;;;;;;0.70;0.70;;;5.50;99.90;;;;;;5057122;28;20662;-85
2022/05/23 00:09:03;;;;;;;0.90;0.90;;;5.50;99.90;;;;;;5072009;28;20213;-84
2022/05/23 00:11:28;;;;;;;0.70;0.70;;;5.40;99.90;;;;;;5072291;28;20568;-84
2022/05/23 00:13:54;;;;;;;0.70;0.70;;;5.40;99.90;;;;;;5072249;28;20198;-83
2022/05/23 00:16:23;;;;;;;0.80;0.80;;;5.40;99.90;;;;;;5075322;28;20231;-84
2022/05/23 00:18:50;;;;;;;0.65;0.65;;;5.40;99.90;;;;;;5055725;28;20209;-83
2022/05/23 00:21:17;;;;;;;1.35;1.25;;;5.30;99.90;;;;;;5057100;28;20197;-83
2022/05/23 00:23:43;;;;;;;0.70;0.70;;;5.30;99.90;;;;;;5057307;28;20284;-83
2022/05/23 00:26:12;;;;;;;0.70;0.70;;;5.30;99.90;;;;;;5056604;28;20208;-84
2022/05/23 00:28:39;;;;;;;0.70;0.70;;;5.30;99.90;;;;;;5057457;28;20250;-82
2022/05/23 00:31:05;;;;;;;0.70;0.70;;;5.20;99.90;;;;;;5058033;28;20202;-83
2022/05/23 00:36:16;;;;;;;0.70;0.70;;;5.20;99.90;;;;;;5059926;28;20209;-84
2022/05/23 00:38:41;;;;;;;0.93;0.93;;;5.20;99.90;;;;;;5060622;28;20193;-83
2022/05/23 00:44:12;;;;;;;0.70;0.70;;;5.10;99.90;;;;;;5061294;28;20240;-83
2022/05/23 00:46:56;;;;;;;0.70;0.70;;;5.10;99.90;;;;;;5063726;28;20201;-83
2022/05/23 00:49:32;;;;;;;0.98;0.98;;;5.10;99.90;;;;;;5061542;28;20193;-83
2022/05/23 00:52:02;;;;;;;0.80;0.80;;;5.10;99.90;;;;;;5059230;28;20196;-82
2022/05/23 00:54:37;;;;;;;0.60;0.60;;;5.20;99.90;;;;;;5057745;28;20205;-83
2022/05/23 00:57:04;;;;;;;0.80;0.80;;;5.20;99.90;;;;;;5060563;28;20651;-82
2022/05/23 00:59:32;;;;;;;0.80;0.80;;;5.20;99.90;;;;;;5051682;28;20213;-83
2022/05/23 01:01:59;;;;;;;0.65;0.65;;;5.10;99.90;;;;;;5050505;28;20209;-84
2022/05/23 01:04:26;;;;;;;0.77;0.77;;;5.10;99.90;;;;;;5050673;28;20198;-84
2022/05/23 01:06:52;;;;;;;0.70;0.70;;;5.10;99.90;;;;;;5051492;28;20677;-82
2022/05/23 01:09:22;;;;;;;0.90;0.90;;;5.00;99.90;;;;;;5051956;28;20226;-83
2022/05/23 01:11:48;;;;;;;0.85;0.85;;;5.00;99.90;;;;;;5036002;28;20194;-83
2022/05/23 01:14:14;;;;;;;0.73;0.73;;;4.90;99.90;;;;;;5054355;28;20202;-82
2022/05/23 01:16:40;;;;;;;0.70;0.70;;;4.90;99.90;;;;;;5070627;28;20258;-82
2022/05/23 01:19:06;;;;;;;0.73;0.73;;;4.90;99.90;;;;;;5076209;28;20211;-83
2022/05/23 01:21:51;;;;;;;0.80;0.80;;;4.80;99.90;;;;;;5077836;28;20569;-83
2022/05/23 01:24:41;;;;;;;0.70;0.70;;;4.80;99.90;;;;;;5077799;28;20201;-83
2022/05/23 01:27:07;;;;;;;0.80;0.80;;;4.80;99.90;;;;;;5077401;28;20208;-83
2022/05/23 01:29:34;;;;;;;0.70;0.70;;;4.80;99.90;;;;;;5062884;28;20200;-83
2022/05/23 01:31:59;;;;;;;0.70;0.70;;;4.80;99.90;;;;;;5061475;28;20295;-84
2022/05/23 01:34:26;;;;;;;0.75;0.75;;;4.80;99.90;;;;;;5061060;28;20247;-82
2022/05/23 01:36:53;;;;;;;0.82;0.82;;;4.80;99.90;;;;;;5061735;28;20729;-82
2022/05/23 01:39:19;;;;;;;0.80;0.80;;;4.90;99.90;;;;;;5061589;28;20200;-82
2022/05/23 01:41:45;;;;;;;0.70;0.70;;;4.90;99.90;;;;;;5060612;28;20733;-83
2022/05/23 01:44:11;;;;;;;0.70;0.70;;;4.90;99.90;;;;;;5059161;28;20228;-83
2022/05/23 01:46:37;;;;;;;0.73;0.73;;;4.90;99.90;;;;;;5077746;28;20686;-83
2022/05/23 01:49:03;;;;;;;1.00;0.90;;;4.80;99.90;;;;;;5061284;28;20200;-82
2022/05/23 01:51:29;;;;;;;0.60;0.60;;;4.80;99.90;;;;;;5078958;28;20201;-82
2022/05/23 01:53:55;;;;;;;0.80;0.80;;;4.80;99.90;;;;;;5062735;28;20197;-81
2022/05/23 01:56:20;;;;;;;0.70;0.70;;;4.80;99.90;;;;;;5061701;28;20193;-83
2022/05/23 02:01:30;;;;;;;0.70;0.70;;;4.90;99.90;;;;;;5078305;28;20563;-83
2022/05/23 02:03:56;;;;;;;0.68;0.68;;;4.80;99.90;;;;;;5061344;28;20260;-83
2022/05/23 02:06:22;;;;;;;0.93;0.93;;;4.80;99.90;;;;;;5061624;28;20554;-83
2022/05/23 02:08:48;;;;;;;0.68;0.68;;;4.90;99.90;;;;;;5062310;28;20206;-83
2022/05/23 02:11:14;;;;;;;1.00;1.00;;;4.80;99.90;;;;;;5062160;28;20192;-83
2022/05/23 02:13:42;;;;;;;0.73;0.73;;;4.80;99.90;;;;;;5092987;28;20575;-83
2022/05/23 02:16:09;;;;;;;0.80;0.80;;;4.80;99.90;;;;;;5078981;28;20662;-82
2022/05/23 02:18:35;;;;;;;0.80;0.80;;;4.80;99.90;;;;;;5080526;28;20219;-82
2022/05/23 02:21:00;;;;;;;0.70;0.70;;;4.80;99.90;;;;;;5078647;28;20255;-84
2022/05/23 02:23:29;;;;;;;0.80;0.80;;;4.80;99.90;;;;;;5078664;28;20200;-83
2022/05/23 02:25:54;;;;;;;0.90;0.90;;;4.80;99.90;;;;;;5062821;28;20698;-82
2022/05/23 02:28:20;;;;;;;1.63;0.95;;;4.80;99.90;;;;;;5078315;28;20196;-83
2022/05/23 02:30:47;;;;;;;0.70;0.70;;;4.80;99.90;;;;;;5061302;28;20201;-82
2022/05/23 02:33:14;;;;;;;1.02;1.02;;;4.80;99.90;;;;;;5061617;28;20682;-82
2022/05/23 02:35:41;;;;;;;0.60;0.60;;;4.80;99.90;;;;;;5061810;28;20219;-83
2022/05/23 02:38:06;;;;;;;0.93;0.93;;;4.80;99.90;;;;;;5061520;28;20201;-82
2022/05/23 02:40:32;;;;;;;0.80;0.80;;;4.80;99.90;;;;;;5060880;28;20215;-82
2022/05/23 02:42:58;;;;;;;0.80;0.80;;;4.90;99.90;;;;;;5060662;28;20188;-81
2022/05/23 02:45:24;;;;;;;0.65;0.65;;;4.90;99.90;;;;;;5060673;28;20193;-83
2022/05/23 02:47:51;;;;;;;0.70;0.70;;;4.90;99.90;;;;;;5061154;28;20197;-83
2022/05/23 02:50:17;;;;;;;0.90;0.90;;;5.00;99.90;;;;;;5060677;28;20611;-83
2022/05/23 02:52:44;;;;;;;0.80;0.80;;;5.00;99.90;;;;;;5078550;28;20193;-83
2022/05/23 02:55:10;;;;;;;0.80;0.80;;;5.00;99.90;;;;;;5060965;28;20217;-82
2022/05/23 02:57:37;;;;;;;0.80;0.80;;;5.10;99.90;;;;;;5077961;28;20199;-82
2022/05/23 03:00:05;;;;;;;0.80;0.80;;;5.20;99.90;;;;;;5060485;28;20193;-82
2022/05/23 03:05:15;;;;;;;0.80;0.80;;;5.20;99.90;;;;;;5078723;28;20239;-82
2022/05/23 03:07:41;;;;;;;0.60;0.60;;;5.30;99.90;;;;;;5060873;28;20197;-83
2022/05/23 03:10:07;;;;;;;0.70;0.70;;;5.40;99.90;;;;;;5078913;28;20253;-82
2022/05/23 03:12:34;;;;;;;0.95;0.95;;;5.40;99.90;;;;;;5078996;28;20196;-82
2022/05/23 03:15:01;;;;;;;0.77;0.77;;;5.50;99.90;;;;;;5077196;28;20213;-83
2022/05/23 03:17:27;;;;;;;1.05;1.02;;;5.50;99.90;;;;;;5078306;28;20725;-82
2022/05/23 03:19:52;;;;;;;0.85;0.85;;;5.50;99.90;;;;;;5060231;28;20222;-83
2022/05/23 03:27:47;;;;;;;0.70;0.70;;;5.70;99.90;;;;;;5057693;28;20613;-84
2022/05/23 03:30:13;;;;;;;0.80;0.80;;;5.70;99.90;;;;;;5039554;28;20206;-83
2022/05/23 03:32:39;;;;;;;1.13;1.08;;;5.80;99.90;;;;;;5056523;28;20205;-82
2022/05/23 03:35:07;;;;;;;1.60;1.50;;;5.80;99.90;;;;;;5039323;28;20244;-83
2022/05/23 03:37:33;;;;;;;0.60;0.60;;;5.90;99.90;;;;;;5038921;28;20204;-82
2022/05/23 03:40:03;;;;;;;1.05;1.05;;;6.00;99.90;;;;;;5039696;28;20193;-83
2022/05/23 03:42:29;;;;;;;0.60;0.60;;;6.00;99.90;;;;;;5039502;28;20229;-82
2022/05/23 03:44:55;;;;;;;0.70;0.70;;;6.10;99.90;;;;;;5039915;28;20194;-82
2022/05/23 03:47:21;;;;;;;0.70;0.70;;;6.10;99.90;;;;;;5040025;28;20239;-82
2022/05/23 03:49:47;;;;;;;0.70;0.70;;;6.10;99.90;;;;;;5057873;28;20197;-83
2022/05/23 03:52:12;;;;;;;0.65;0.65;;;6.20;99.90;;;;;;5039658;28;20202;-83
2022/05/23 03:54:38;;;;;;;0.70;0.70;;;6.30;99.90;;;;;;5039917;28;20212;-82
2022/05/23 03:57:04;;;;;;;0.90;0.90;;;6.40;99.90;;;;;;5039856;28;20189;-82
2022/05/23 03:59:30;;;;;;;0.70;0.70;;;6.50;99.90;;;;;;5048247;28;20276;-83
2022/05/23 04:01:57;;;;;;;0.70;0.70;;;6.70;99.90;;;;;;5057934;28;20200;-83
2022/05/23 04:04:25;;;;;;;0.85;0.85;;;6.90;99.90;;;;;;5039682;28;20569;-83
2022/05/23 04:06:52;;;;;;;0.80;0.80;;;7.00;99.90;;;;;;5039719;28;20283;-83
2022/05/23 04:09:18;;;;;;;0.73;0.73;;;7.10;99.90;;;;;;5040068;28;20217;-83
2022/05/23 04:11:44;;;;;;;0.70;0.70;;;7.20;99.90;;;;;;5039264;28;20204;-83
2022/05/23 04:14:10;;;;;;;0.70;0.70;;;7.30;99.90;;;;;;5039856;28;20197;-83
2022/05/23 04:16:36;;;;;;;0.70;0.70;;;7.40;99.90;;;;;;5051652;28;20761;-83
2022/05/23 04:19:08;;;;;;;1.20;1.10;;;7.50;99.90;;;;;;5059840;28;20246;-84
2022/05/23 04:21:34;;;;;;;0.73;0.73;;;7.60;99.90;;;;;;5077036;28;20189;-83
2022/05/23 04:23:59;;;;;;;0.70;0.70;;;7.70;99.90;;;;;;5059696;28;20219;-82
2022/05/23 04:26:28;;;;;;;0.60;0.60;;;7.90;99.90;;;;;;5076529;28;20288;-83
2022/05/23 04:28:55;;;;;;;0.80;0.80;;;8.00;99.90;;;;;;5059319;28;20189;-84
2022/05/23 04:31:20;;;;;;;1.27;1.17;;;8.10;99.90;;;;;;5059383;28;20209;-83
2022/05/23 04:36:31;;;;;;;0.70;0.70;;;8.30;99.90;;;;;;5078557;28;20222;-84
2022/05/23 04:38:56;;;;;;;0.93;0.93;;;8.40;99.90;;;;;;5059362;28;20197;-83
2022/05/23 04:41:23;;;;;;;0.80;0.80;;;8.50;99.90;;;;;;5077798;28;20283;-84
2022/05/23 04:43:50;;;;;;;0.90;0.90;;;8.60;99.90;;;;;;5061531;28;20201;-84
2022/05/23 04:46:16;;;;;;;0.60;0.60;;;8.60;99.90;;;;;;5079595;28;20219;-84
2022/05/23 04:51:26;;;;;;;0.82;0.82;;;8.80;99.90;;;;;;5079784;28;20613;-84
2022/05/23 04:53:55;;;;;;;0.60;0.60;;;8.90;99.90;;;;;;5063135;28;20192;-84
2022/05/23 04:56:22;;;;;;;4.53;1.17;;;9.00;99.90;;;;;;5064255;28;20209;-82
2022/05/23 04:58:48;;;;;;;1.10;1.08;;;9.10;99.90;;;;;;5060906;28;20224;-85
2022/05/23 05:04:14;;;;;;;1.13;1.10;;;9.30;99.90;;;;;;5053294;28;20205;-85
2022/05/23 05:06:39;;;;;;;0.90;0.90;;;9.50;99.90;;;;;;5044616;28;20216;-86
2022/05/23 05:09:05;;;;;;;0.70;0.70;;;9.60;99.90;;;;;;5052168;28;20193;-83
2022/05/23 05:11:31;;;;;;;0.75;0.75;;;9.80;99.90;;;;;;5080715;28;20221;-87
2022/05/23 05:13:57;;;;;;;1.00;1.00;;;9.90;99.90;;;;;;5083465;28;20193;-87
2022/05/23 05:16:23;;;;;;;0.95;0.95;;;10.00;99.90;;;;;;5077606;28;20229;-86
2022/05/23 05:19:39;;;;;;;1.05;0.95;;;10.00;99.90;;;;;;5078804;28;20216;-86
2022/05/23 05:22:05;;;;;;;1.33;1.25;;;10.10;99.90;;;;;;5062045;28;20209;-85
2022/05/23 05:24:32;;;;;;;0.93;0.93;;;10.20;99.90;;;;;;5062020;28;20193;-86
2022/05/23 05:27:02;;;;;;;0.70;0.70;;;10.30;99.90;;;;;;5061918;28;20208;-85
2022/05/23 05:29:28;;;;;;;0.98;0.95;;;10.40;99.90;;;;;;5062446;28;20652;-86
2022/05/23 05:32:05;;;;;;;0.85;0.85;;;10.30;99.90;;;;;;5061327;28;20224;-86
2022/05/23 05:34:43;;;;;;;0.90;0.90;;;10.20;99.90;;;;;;5061235;28;20209;-84
2022/05/23 05:37:30;;;;;;;2.25;1.65;;;10.10;99.90;;;;;;5061193;28;20189;-85
2022/05/23 05:39:58;;;;;;;1.55;1.00;;;10.30;99.90;;;;;;5060067;28;20603;-86
2022/05/23 05:42:32;;;;;;;2.08;1.88;;;10.40;99.90;;;;;;5060196;28;20197;-87
2022/05/23 05:45:03;;;;;;;0.80;0.80;;;10.50;99.90;;;;;;5060263;28;20201;-84
2022/05/23 05:47:32;;;;;;;3.50;1.50;;;10.40;99.90;;;;;;5060785;28;20648;-85
2022/05/23 05:50:03;;;;;;;0.60;0.60;;;10.50;99.90;;;;;;5060794;28;20652;-85
2022/05/23 05:52:31;;;;;;;1.08;1.08;;;10.60;99.90;;;;;;5060308;28;20658;-87
2022/05/23 05:55:00;;;;;;;0.60;0.60;;;10.80;99.90;;;;;;5064742;28;20594;-85
2022/05/23 05:57:27;;;;;;;1.58;1.10;;;10.90;99.90;;;;;;5061535;28;20280;-86
2022/05/23 05:59:53;;;;;;;1.55;1.15;;;11.10;99.90;;;;;;5061471;28;20660;-86
2022/05/23 06:02:19;;;;;;;2.22;1.73;;;11.30;99.90;;;;;;5076892;28;20194;-86
2022/05/23 06:04:45;;;;;;;1.65;1.55;;;11.40;99.90;;;;;;5059774;28;20233;-87
2022/05/23 06:12:48;;;;;;;1.23;1.13;;;11.30;99.90;;;;;;5061511;28;20255;-87
2022/05/23 06:15:14;;;;;;;3.83;2.28;;;11.40;99.90;;;;;;5076802;28;20209;-86
2022/05/23 06:17:44;;;;;;;1.45;1.35;;;11.50;99.90;;;;;;5076506;28;20260;-86
2022/05/23 06:20:15;;;;;;;0.80;0.80;;;11.70;99.90;;;;;;5076568;28;20682;-86
2022/05/23 06:22:41;;;;;;;0.93;0.93;;;11.60;99.90;;;;;;5077431;28;20197;-87
2022/05/23 06:25:09;;;;;;;0.85;0.85;;;11.70;99.90;;;;;;5076411;28;20300;-87
2022/05/23 06:27:37;;;;;;;1.00;1.00;;;11.90;99.90;;;;;;5060424;28;20252;-86
2022/05/23 06:30:06;;;;;;;0.73;0.73;;;12.20;99.90;;;;;;5075746;28;20201;-84
2022/05/23 06:32:32;;;;;;;0.95;0.95;;;12.30;99.90;;;;;;5076888;28;20201;-87
2022/05/23 06:34:58;;;;;;;1.10;1.00;;;12.40;99.90;;;;;;5076235;28;20220;-86
2022/05/23 06:37:25;;;;;;;2.55;1.70;;;12.50;99.90;;;;;;5076229;28;20201;-85
2022/05/23 06:39:50;;;;;;;0.57;0.57;;;13.00;99.90;;;;;;5060960;28;20667;-86
2022/05/23 06:42:16;;;;;;;2.67;0.88;;;13.50;99.90;;;;;;5060318;28;20201;-86
2022/05/23 06:44:42;;;;;;;0.60;0.60;;;13.70;99.90;;;;;;5076312;28;20198;-87
2022/05/23 06:47:08;;;;;;;0.57;0.57;;;14.30;99.90;;;;;;5061610;28;20198;-87
2022/05/23 06:49:33;;;;;;;0.68;0.68;;;14.60;99.90;;;;;;5077141;28;20233;-88
2022/05/23 06:52:00;;;;;;;2.42;1.48;;;14.90;99.90;;;;;;5060701;28;20198;-87
2022/05/23 06:54:26;;;;;;;0.75;0.75;;;15.10;99.90;;;;;;5059585;28;20206;-86
2022/05/23 06:56:51;;;;;;;0.60;0.60;;;15.10;99.90;;;;;;5059874;28;20200;-87
2022/05/23 06:59:18;;;;;;;1.48;0.98;;;15.10;99.90;;;;;;5059621;28;20554;-87
2022/05/23 07:01:45;;;;;;;0.75;0.73;;;15.20;99.90;;;;;;5060996;28;20194;-88
2022/05/23 07:04:11;;;;;;;0.50;0.50;;;15.30;99.90;;;;;;5059425;28;20201;-87
2022/05/23 07:12:20;;;;;;;1.10;0.98;;;15.90;99.90;;;;;;5061561;28;20239;-88
2022/05/23 07:14:47;;;;;;;0.40;0.40;;;16.00;99.90;;;;;;5060110;28;20220;-89
2022/05/23 07:17:13;;;;;;;2.65;1.55;;;16.40;99.90;;;;;;5059249;28;20225;-87
2022/05/23 07:19:39;;;;;;;0.65;0.65;;;16.60;99.90;;;;;;5059208;28;20556;-88
2022/05/23 07:22:05;;;;;;;0.35;0.35;;;16.60;99.90;;;;;;5059722;28;20193;-89
2022/05/23 07:24:32;;;;;;;0.60;0.60;;;16.70;99.90;;;;;;5060376;28;20292;-89
2022/05/23 07:26:59;;;;;;;0.60;0.60;;;16.90;99.90;;;;;;5060320;28;20201;-88
2022/05/23 07:29:25;;;;;;;0.50;0.50;;;16.70;99.90;;;;;;5059390;28;20208;-89
2022/05/23 07:31:52;;;;;;;0.52;0.52;;;16.80;99.90;;;;;;5060173;28;20229;-91
2022/05/23 07:34:19;;;;;;;0.65;0.65;;;17.00;99.90;;;;;;5060697;28;20201;-89
2022/05/23 07:36:46;;;;;;;0.40;0.40;;;17.00;99.90;;;;;;5059890;28;20257;-88
2022/05/23 07:39:12;;;;;;;0.55;0.52;;;16.90;99.90;;;;;;5059085;28;20729;-89
2022/05/23 07:41:40;;;;;;;0.50;0.50;;;17.00;99.90;;;;;;5059521;28;20197;-89
2022/05/23 07:44:08;;;;;;;0.38;0.38;;;16.70;99.90;;;;;;5060007;28;20196;-89
2022/05/23 07:46:34;;;;;;;0.32;0.32;;;16.60;99.90;;;;;;5059435;28;20196;-88
2022/05/23 08:01:24;;;;;;;0.30;0.30;;;17.40;99.90;;;;;;5039070;28;20201;-88
2022/05/23 08:03:50;;;;;;;0.30;0.30;;;17.30;99.90;;;;;;5075161;28;20262;-89
2022/05/23 08:06:17;;;;;;;0.43;0.43;;;17.50;99.90;;;;;;5078933;28;20205;-88
2022/05/23 08:08:43;;;;;;;0.30;0.30;;;17.70;99.90;;;;;;5063889;28;20580;-88
2022/05/23 08:11:09;;;;;;;0.30;0.30;;;18.10;99.90;;;;;;5063797;28;20201;-89
2022/05/23 08:13:37;;;;;;;31.08;0.70;;;18.10;99.90;;;;;;5061804;28;20239;-91
2022/05/23 08:16:04;;;;;;;0.40;0.40;;;18.20;99.90;;;;;;5057324;28;20264;-90
2022/05/23 08:18:30;;;;;;;0.30;0.30;;;17.80;99.90;;;;;;5045445;28;20313;-89
2022/05/23 08:20:56;;;;;;;0.25;0.25;;;18.00;99.90;;;;;;5048699;28;20294;-91
2022/05/23 08:23:22;;;;;;;0.30;0.30;;;17.60;99.90;;;;;;5063119;28;20196;-92
2022/05/23 08:25:48;;;;;;;0.30;0.30;;;18.00;99.90;;;;;;5063286;28;20203;-90
2022/05/23 08:28:14;;;;;;;0.40;0.40;;;18.20;99.90;;;;;;5064046;28;20197;-89
2022/05/23 08:30:40;;;;;;;0.30;0.30;;;18.50;99.90;;;;;;5068794;28;20211;-88
2022/05/23 08:33:08;;;;;;;0.40;0.30;;;18.90;99.90;;;;;;5069003;28;20196;-90
2022/05/23 08:35:34;;;;;;;0.63;0.30;;;19.20;99.90;;;;;;5068201;28;20714;-87
2022/05/23 08:38:10;;;;;;;0.30;0.30;;;19.40;99.90;;;;;;5069248;28;20228;-90
2022/05/23 08:40:57;;;;;;;0.20;0.20;;;19.70;99.90;;;;;;5069243;28;20224;-90
2022/05/23 08:43:40;;;;;;;0.30;0.30;;;19.60;98.40;;;;;;5068496;28;20196;-91
2022/05/23 08:46:08;;;;;;;0.38;0.38;;;19.50;97.90;;;;;;5068436;28;20698;-89
2022/05/23 08:48:47;;;;;;;0.20;0.20;;;19.80;98.70;;;;;;5067543;28;20667;-93
2022/05/23 08:51:23;;;;;;;0.30;0.30;;;20.00;96.80;;;;;;5063956;28;20201;-89
2022/05/23 08:54:14;;;;;;;0.20;0.20;;;19.70;96.40;;;;;;5064126;28;20201;-91
2022/05/23 08:56:47;;;;;;;0.20;0.20;;;19.90;95.60;;;;;;5065002;28;20208;-89
2022/05/23 08:59:31;;;;;;;0.22;0.22;;;20.00;93.00;;;;;;5050389;28;20194;-90
2022/05/23 09:02:11;;;;;;;0.95;0.77;;;19.10;92.30;;;;;;5047464;28;20220;-92
2022/05/23 09:05:10;;;;;;;0.30;0.30;;;19.30;93.40;;;;;;5047776;28;20230;-90
2022/05/23 09:07:47;;;;;;;0.20;0.20;;;19.90;93.70;;;;;;5047682;28;20202;-89
2022/05/23 09:10:28;;;;;;;0.20;0.20;;;20.40;92.60;;;;;;5046711;28;20224;-89
2022/05/23 09:12:54;;;;;;;0.38;0.38;;;20.20;84.90;;;;;;5046525;28;20198;-90
2022/05/23 09:15:22;;;;;;;0.20;0.20;;;20.00;84.10;;;;;;5046614;28;20271;-88
2022/05/23 09:17:57;;;;;;;0.50;0.35;;;20.10;89.30;;;;;;5085420;28;20224;-91
2022/05/23 09:20:33;;;;;;;0.40;0.30;;;20.20;87.00;;;;;;5068583;28;20193;-89
2022/05/23 09:23:05;;;;;;;4.57;0.93;;;20.20;90.40;;;;;;5066905;28;20193;-89
2022/05/23 09:25:31;;;;;;;0.20;0.20;;;20.60;87.70;;;;;;5067882;28;20197;-89
2022/05/23 09:28:24;;;;;;;0.20;0.20;;;20.40;84.60;;;;;;5069357;28;20211;-90
2022/05/23 09:30:59;;;;;;;0.20;0.20;;;20.50;80.00;;;;;;5069052;28;20296;-91
2022/05/23 09:33:32;;;;;;;0.20;0.20;;;20.00;84.00;;;;;;5069430;28;20330;-91
2022/05/23 09:36:10;;;;;;;0.40;0.40;;;19.90;88.80;;;;;;5052807;28;20239;-91
2022/05/23 09:48:17;;;;;;;2.38;0.73;;;20.60;83.00;;;;;;5087297;28;20204;-90
2022/05/23 09:50:59;;;;;;;0.20;0.20;;;20.20;80.20;;;;;;5069180;28;20193;-89
2022/05/23 09:53:38;;;;;;;0.20;0.20;;;20.00;85.10;;;;;;5067153;28;20197;-91
2022/05/23 09:56:28;;;;;;;0.25;0.25;;;20.60;84.00;;;;;;5067870;28;20215;-92
2022/05/23 09:59:02;;;;;;;0.20;0.20;;;20.70;84.80;;;;;;5064591;28;20197;-90
2022/05/23 10:04:44;;;;;;;0.32;0.32;;;20.90;87.30;;;;;;5062954;28;20594;-89
2022/05/23 10:07:38;;;;;;;0.20;0.20;;;21.20;86.00;;;;;;5067502;28;20676;-90
2022/05/23 10:10:08;;;;;;;0.20;0.20;;;20.90;87.90;;;;;;5084906;28;20197;-88
2022/05/23 10:12:35;;;;;;;0.20;0.20;;;20.80;87.80;;;;;;5065341;28;20200;-90
2022/05/23 10:15:28;;;;;;;0.20;0.20;;;21.40;86.90;;;;;;5067224;28;20209;-90
2022/05/23 10:18:05;;;;;;;1.65;0.40;;;21.60;80.50;;;;;;5044625;28;20237;-91
2022/05/23 10:20:35;;;;;;;0.75;0.75;;;21.90;88.10;;;;;;5043284;28;20243;-91
2022/05/23 10:23:18;;;;;;;0.40;0.40;;;22.30;84.50;;;;;;5045681;28;20252;-89
2022/05/23 10:26:11;;;;;;;0.25;0.25;;;22.40;81.70;;;;;;5042474;28;20310;-89
2022/05/23 10:28:50;;;;;;;0.20;0.20;;;21.80;79.30;;;;;;5041282;28;20204;-91
2022/05/23 10:31:52;;;;;;;0.20;0.20;;;21.20;79.20;;;;;;5044180;28;20228;-91
2022/05/23 10:34:42;;;;;;;0.20;0.20;;;20.50;81.30;;;;;;5007666;28;20254;-90
2022/05/23 10:37:32;;;;;;;1.15;0.50;;;20.60;79.40;;;;;;5060051;28;20292;-91
2022/05/23 10:43:19;;;;;;;0.20;0.20;;;21.30;83.50;;;;;;5062525;28;20236;-90
2022/05/23 10:45:59;;;;;;;0.30;0.30;;;21.00;85.00;;;;;;5044261;28;20197;-91
2022/05/23 10:48:56;;;;;;;0.20;0.20;;;21.20;81.70;;;;;;5044050;28;20667;-90
2022/05/23 10:51:32;;;;;;;0.20;0.20;;;21.00;81.30;;;;;;5043316;28;20202;-90
2022/05/23 10:54:11;;;;;;;0.10;0.10;;;21.30;81.60;;;;;;5044168;28;20663;-91
2022/05/23 10:57:21;;;;;;;0.47;0.40;;;21.80;79.00;;;;;;5059234;28;20201;-88
2022/05/23 11:00:12;;;;;;;0.20;0.20;;;21.90;79.70;;;;;;5023864;28;20194;-89
2022/05/23 11:03:11;;;;;;;0.20;0.20;;;21.90;77.30;;;;;;5024188;28;20194;-90
2022/05/23 11:05:59;;;;;;;0.30;0.30;;;22.10;80.90;;;;;;5027237;28;20240;-89
2022/05/23 11:09:18;;;;;;;0.20;0.20;;;21.90;82.30;;;;;;5041025;28;20205;-90
2022/05/23 11:12:04;;;;;;;0.75;0.45;;;21.80;78.30;;;;;;5019193;28;20216;-88
2022/05/23 11:14:36;;;;;;;0.20;0.20;;;21.70;80.40;;;;;;5042350;28;20209;-89
2022/05/23 11:17:29;;;;;;;0.28;0.28;;;22.00;78.80;;;;;;5057089;28;20228;-89
2022/05/23 11:20:24;;;;;;;0.47;0.43;;;22.30;82.50;;;;;;5081447;28;20200;-90
2022/05/23 11:23:00;;;;;;;0.40;0.40;;;22.40;76.90;;;;;;5065436;28;20213;-90
2022/05/23 11:25:39;;;;;;;3.75;1.23;;;21.90;76.70;;;;;;5065536;28;20203;-90
2022/05/23 11:33:58;;;;;;;0.17;0.17;;;21.70;77.50;;;;;;5083545;28;20243;-90
2022/05/23 11:36:56;;;;;;;1.27;0.35;;;22.00;83.20;;;;;;5064132;28;20578;-92
2022/05/23 11:39:57;;;;;;;0.20;0.20;;;22.10;75.60;;;;;;5081937;28;20196;-90
2022/05/23 11:42:30;;;;;;;0.10;0.10;;;23.00;82.50;;;;;;5044019;28;20287;-89
2022/05/23 11:47:51;;;;;;;0.10;0.10;;;22.50;74.80;;;;;;5090719;28;20207;-90
2022/05/23 11:50:26;;;;;;;0.40;0.40;;;22.20;75.70;;;;;;5084347;28;20192;-90
2022/05/23 11:53:12;;;;;;;0.35;0.35;;;22.20;76.80;;;;;;5084435;28;20290;-90
2022/05/23 11:55:59;;;;;;;0.20;0.20;;;21.90;76.50;;;;;;5083502;28;20223;-90
2022/05/23 11:58:40;;;;;;;0.20;0.20;;;21.40;78.20;;;;;;5091264;28;20200;-90
2022/05/23 12:01:12;;;;;;;0.30;0.30;;;20.90;83.60;;;;;;5064502;28;20224;-89
2022/05/23 12:03:54;;;;;;;0.20;0.20;;;21.20;81.60;;;;;;5065956;28;20197;-89
2022/05/23 12:06:28;;;;;;;1.00;0.63;;;21.70;76.60;;;;;;5065034;28;20192;-89
2022/05/23 12:08:57;;;;;;;2.28;0.88;;;21.70;77.30;;;;;;5065684;28;20193;-89
2022/05/23 12:11:29;;;;;;;0.52;0.32;;;21.90;79.60;;;;;;5064747;28;20272;-90
2022/05/23 12:14:12;;;;;;;0.20;0.20;;;21.70;76.80;;;;;;5081487;28;20228;-90
2022/05/23 12:16:44;;;;;;;0.20;0.20;;;21.90;78.20;;;;;;5070637;28;20704;-88
2022/05/23 12:19:17;;;;;;;0.15;0.15;;;21.70;76.50;;;;;;5085757;28;20192;-89
2022/05/23 12:21:48;;;;;;;0.20;0.20;;;22.10;79.30;;;;;;5085511;28;20732;-91
2022/05/23 12:24:35;;;;;;;0.45;0.20;;;22.50;80.00;;;;;;5084337;28;20192;-89
2022/05/23 12:27:05;;;;;;;0.20;0.20;;;22.70;76.10;;;;;;5104251;28;20560;-92
2022/05/23 12:29:39;;;;;;;0.10;0.10;;;22.40;77.50;;;;;;5086107;28;20203;-89
2022/05/23 12:32:24;;;;;;;0.20;0.20;;;23.00;76.40;;;;;;5086374;28;20196;-91
2022/05/23 12:34:56;;;;;;;0.30;0.30;;;23.00;78.40;;;;;;5086609;28;20212;-90
2022/05/23 12:37:38;;;;;;;0.10;0.10;;;23.60;79.00;;;;;;5073048;28;20189;-89
2022/05/23 12:40:10;;;;;;;0.10;0.10;;;24.00;79.30;;;;;;5065517;28;20227;-89
2022/05/23 12:43:03;;;;;;;0.10;0.10;;;23.90;72.80;;;;;;5082225;28;20205;-89
2022/05/23 12:45:52;;;;;;;0.20;0.20;;;23.60;72.30;;;;;;5065907;28;20223;-90
2022/05/23 12:48:36;;;;;;;0.38;0.38;;;23.20;75.00;;;;;;5058661;28;20238;-89
2022/05/23 12:51:23;;;;;;;3.92;0.43;;;22.50;76.10;;;;;;5064624;28;20193;-90
2022/05/23 12:54:17;;;;;;;0.20;0.20;;;22.40;75.00;;;;;;5064191;28;20201;-89
2022/05/23 12:56:46;;;;;;;0.20;0.20;;;21.90;76.10;;;;;;5081314;28;20220;-88
2022/05/23 12:59:56;;;;;;;0.30;0.30;;;22.20;75.30;;;;;;5097141;28;20223;-88
2022/05/23 13:02:36;;;;;;;0.10;0.10;;;21.80;74.50;;;;;;5083709;28;20215;-88
2022/05/23 13:05:14;;;;;;;0.40;0.15;;;21.50;74.60;;;;;;5084915;28;20227;-89
2022/05/23 13:07:52;;;;;;;0.10;0.10;;;21.90;76.50;;;;;;5084256;28;20204;-89
2022/05/23 13:10:28;;;;;;;0.00;0.00;;;21.90;74.00;;;;;;5091255;28;20196;-89
2022/05/23 13:13:15;;;;;;;0.00;0.00;;;21.90;74.20;;;;;;5064153;28;20197;-89
2022/05/23 13:16:03;;;;;;;;;;;;;;;;;;;;;
2022/05/23 13:24:02;;;;;;;0.10;0.10;;;22.90;72.90;;;;;;5088478;28;20199;-90
2022/05/23 13:26:28;;;;;;;0.10;0.10;;;22.80;70.50;;;;;;5071802;28;20208;-90
2022/05/23 13:28:54;;;;;;;0.10;0.10;;;22.70;70.10;;;;;;5066727;28;20269;-90
2022/05/23 13:31:41;;;;;;;0.10;0.10;;;22.80;73.70;;;;;;5068130;28;20224;-90
2022/05/23 13:34:10;;;;;;;0.00;0.00;;;22.70;72.00;;;;;;5067496;28;20240;-90
2022/05/23 13:36:45;;;;;;;0.20;0.20;;;22.70;73.60;;;;;;5067392;28;20220;-89
2022/05/23 13:39:14;;;;;;;0.85;0.20;;;22.60;72.10;;;;;;5067477;28;20184;-90
2022/05/23 13:41:40;;;;;;;0.10;0.10;;;23.00;71.60;;;;;;5067683;28;20266;-90
2022/05/23 13:44:07;;;;;;;0.10;0.00;;;23.00;72.90;;;;;;5067077;28;20197;-90
2022/05/23 13:47:06;;;;;;;0.10;0.10;;;23.10;70.50;;;;;;5071297;28;20201;-90
2022/05/23 13:49:38;;;;;;;0.00;0.00;;;23.00;70.00;;;;;;5063797;28;20228;-89
2022/05/23 13:52:10;;;;;;;0.10;0.10;;;23.60;71.60;;;;;;5068257;28;20197;-88
2022/05/23 13:55:01;;;;;;;1.33;0.65;;;23.80;72.40;;;;;;5080174;28;20203;-90
2022/05/23 13:57:40;;;;;;;0.13;0.13;;;23.30;68.80;;;;;;5084509;28;20207;-91
2022/05/23 14:00:14;;;;;;;0.17;0.17;;;22.80;70.20;;;;;;5070352;28;20212;-92
2022/05/23 14:03:10;;;;;;;0.00;0.00;;;23.00;72.00;;;;;;5065554;28;20227;-89
2022/05/23 14:05:50;;;;;;;0.10;0.10;;;23.40;70.90;;;;;;5064552;28;20258;-91
2022/05/23 14:08:20;;;;;;;0.00;0.00;;;23.00;69.10;;;;;;5082201;28;20201;-89
2022/05/23 14:10:49;;;;;;;0.10;0.10;;;21.90;70.30;;;;;;5082509;28;20647;-89
2022/05/23 14:13:18;;;;;;;0.05;0.05;;;22.10;73.60;;;;;;5082839;28;20540;-90
2022/05/23 14:15:53;;;;;;;0.10;0.10;;;22.10;70.40;;;;;;5084504;28;20219;-88
2022/05/23 14:19:03;;;;;;;0.45;0.15;;;22.40;71.90;;;;;;5089416;28;20200;-89
2022/05/23 14:21:37;;;;;;;0.00;0.00;;;22.30;73.90;;;;;;5081886;28;20200;-87
2022/05/23 14:24:25;;;;;;;0.10;0.10;;;22.70;67.90;;;;;;5083125;28;20189;-89
2022/05/23 14:27:18;;;;;;;0.10;0.10;;;23.10;72.80;;;;;;5085173;28;20192;-88
2022/05/23 14:36:40;;;;;;;0.00;0.00;;;23.30;67.60;;;;;;5015612;28;20253;-91
2022/05/23 14:39:17;;;;;;;0.10;0.10;;;23.20;68.30;;;;;;5007403;28;20206;-89
2022/05/23 14:41:46;;;;;;;0.00;0.00;;;23.10;69.50;;;;;;5020392;28;20666;-89
2022/05/23 14:44:17;;;;;;;0.22;0.20;;;23.20;68.50;;;;;;5003497;28;20206;-89
2022/05/23 14:47:05;;;;;;;0.00;0.00;;;22.70;67.10;;;;;;5008463;28;20178;-91